Time;durP1;ratioP1;P1;durP2;ratioP2;P2;SDS_P1;SDS_P2;PMS_P1;PMS_P2;Temp;Humidity;BMP_temperature;BMP_pressure;BME280_temperature;BME280_humidity;BME280_pressure;Samples;Min_cycle;Max_cycle;Signal;HPM_P1;HPM_P2
2024/04/03 00:01:24;;;;;;;4.53;4.00;;;19.90;60.80;;;;;;4929138;29;20442;-79
2024/04/03 00:03:50;;;;;;;7.17;4.07;;;19.90;60.80;;;;;;4919108;29;20457;-79
2024/04/03 00:06:18;;;;;;;4.23;3.83;;;19.80;60.60;;;;;;4902880;29;20498;-80
2024/04/03 00:08:44;;;;;;;4.27;3.30;;;19.80;60.80;;;;;;4902900;29;20446;-79
2024/04/03 00:11:11;;;;;;;3.87;3.50;;;19.80;60.80;;;;;;4902690;29;20469;-79
2024/04/03 00:13:37;;;;;;;4.83;3.60;;;19.80;60.70;;;;;;4920022;29;20441;-80
2024/04/03 00:16:06;;;;;;;9.57;3.53;;;19.90;60.70;;;;;;4903508;29;20580;-81
2024/04/03 00:18:32;;;;;;;3.83;3.53;;;19.80;60.70;;;;;;4903171;29;20452;-80
2024/04/03 00:21:01;;;;;;;3.80;3.50;;;19.80;60.80;;;;;;4903404;29;20453;-81
2024/04/03 00:23:27;;;;;;;3.70;3.40;;;19.80;60.80;;;;;;4903198;29;20449;-78
2024/04/03 00:25:57;;;;;;;5.17;3.50;;;19.80;60.70;;;;;;4902906;29;20523;-80
2024/04/03 00:28:24;;;;;;;3.80;3.40;;;19.80;60.70;;;;;;4902643;29;20494;-80
2024/04/03 00:30:52;;;;;;;3.70;3.40;;;19.80;61.00;;;;;;4898863;29;20478;-80
2024/04/03 00:33:20;;;;;;;3.37;3.10;;;19.80;60.90;;;;;;4903338;29;20450;-79
2024/04/03 00:35:58;;;;;;;5.47;3.70;;;19.80;60.70;;;;;;4902647;29;20469;-79
2024/04/03 00:38:24;;;;;;;4.10;3.70;;;19.80;60.90;;;;;;4898247;29;20435;-79
2024/04/03 00:40:58;;;;;;;4.83;4.00;;;19.80;60.80;;;;;;4893920;29;20442;-79
2024/04/03 00:43:24;;;;;;;4.40;4.00;;;19.80;60.80;;;;;;4898461;29;20439;-79
2024/04/03 00:45:52;;;;;;;3.83;3.37;;;19.70;61.10;;;;;;4918173;29;20465;-80
2024/04/03 00:48:19;;;;;;;4.03;3.63;;;19.80;61.30;;;;;;4918778;29;20446;-80
2024/04/03 00:50:47;;;;;;;4.80;3.70;;;19.80;60.90;;;;;;4902276;29;20446;-79
2024/04/03 00:53:13;;;;;;;4.00;3.70;;;19.80;61.00;;;;;;4918595;29;20446;-80
2024/04/03 00:55:40;;;;;;;3.70;3.40;;;19.70;61.00;;;;;;4898025;29;20474;-79
2024/04/03 00:58:07;;;;;;;5.00;3.60;;;19.80;61.10;;;;;;4919161;29;20512;-80
2024/04/03 01:00:35;;;;;;;3.60;3.30;;;19.70;61.20;;;;;;4901079;29;20807;-78
2024/04/03 01:03:02;;;;;;;3.53;3.23;;;19.70;61.20;;;;;;4917560;29;20434;-79
2024/04/03 01:05:30;;;;;;;3.70;3.40;;;19.80;61.10;;;;;;4901572;29;20480;-78
2024/04/03 01:07:56;;;;;;;4.00;3.70;;;19.70;61.20;;;;;;4902431;29;20446;-80
2024/04/03 01:10:23;;;;;;;3.43;3.07;;;19.70;61.30;;;;;;4902226;29;20472;-78
2024/04/03 01:12:49;;;;;;;3.53;3.23;;;19.70;61.10;;;;;;4918803;29;20478;-79
2024/04/03 01:15:17;;;;;;;3.87;3.57;;;19.80;61.30;;;;;;4901185;29;20458;-79
2024/04/03 01:17:43;;;;;;;3.70;3.40;;;19.70;61.20;;;;;;4917617;29;20449;-80
2024/04/03 01:20:11;;;;;;;5.83;3.63;;;19.80;61.20;;;;;;4902158;29;20493;-80
2024/04/03 01:22:39;;;;;;;3.30;3.00;;;19.70;61.20;;;;;;4901997;29;20442;-80
2024/04/03 01:25:07;;;;;;;3.77;3.13;;;19.80;61.20;;;;;;4901747;29;20453;-79
2024/04/03 01:27:33;;;;;;;3.20;3.00;;;19.70;61.00;;;;;;4901728;29;20446;-78
2024/04/03 01:30:01;;;;;;;4.03;3.20;;;19.70;61.40;;;;;;4918043;29;20442;-79
2024/04/03 01:32:28;;;;;;;3.73;3.43;;;19.70;61.20;;;;;;4902058;29;20481;-80
2024/04/03 01:34:55;;;;;;;3.07;2.80;;;19.70;61.40;;;;;;4917617;29;20446;-79
2024/04/03 01:37:21;;;;;;;3.03;2.83;;;19.70;61.40;;;;;;4902108;29;20453;-79
2024/04/03 01:39:48;;;;;;;3.50;3.20;;;19.70;61.50;;;;;;4917983;29;20438;-79
2024/04/03 01:42:16;;;;;;;3.40;2.80;;;19.70;61.30;;;;;;4902016;29;20446;-80
2024/04/03 01:44:43;;;;;;;2.90;2.70;;;19.70;61.50;;;;;;4917230;29;20438;-79
2024/04/03 01:47:09;;;;;;;3.77;3.00;;;19.70;61.60;;;;;;4917549;29;20461;-79
2024/04/03 01:49:36;;;;;;;2.93;2.73;;;19.70;61.40;;;;;;4913141;29;20450;-78
2024/04/03 01:52:03;;;;;;;3.33;3.07;;;19.60;61.40;;;;;;4915090;29;20489;-79
2024/04/03 01:54:31;;;;;;;4.50;3.47;;;19.60;61.50;;;;;;4900416;29;20442;-79
2024/04/03 01:56:57;;;;;;;3.40;2.87;;;19.60;61.60;;;;;;4915803;29;20462;-79
2024/04/03 01:59:25;;;;;;;3.20;2.83;;;19.60;61.40;;;;;;4900220;29;20452;-78
2024/04/03 02:01:51;;;;;;;2.87;2.53;;;19.60;61.70;;;;;;4917169;29;20529;-79
2024/04/03 02:04:18;;;;;;;2.90;2.70;;;19.60;61.50;;;;;;4901999;29;20441;-78
2024/04/03 02:06:45;;;;;;;3.50;3.17;;;19.60;61.70;;;;;;4916897;29;20544;-79
2024/04/03 02:09:12;;;;;;;2.90;2.70;;;19.60;61.70;;;;;;4901470;29;20442;-79
2024/04/03 02:11:38;;;;;;;2.67;2.47;;;19.50;61.70;;;;;;4917052;29;20442;-80
2024/04/03 02:14:06;;;;;;;2.83;2.63;;;19.50;61.60;;;;;;4902133;29;20452;-80
2024/04/03 02:16:34;;;;;;;7.00;3.40;;;19.50;61.70;;;;;;4900853;29;20223;-80
2024/04/03 02:19:01;;;;;;;4.67;2.93;;;19.50;61.80;;;;;;4916727;29;20945;-80
2024/04/03 02:21:27;;;;;;;2.80;2.47;;;19.50;61.70;;;;;;4901684;29;20989;-80
2024/04/03 02:23:54;;;;;;;2.50;2.40;;;19.50;61.90;;;;;;4917495;29;20457;-79
2024/04/03 02:26:21;;;;;;;2.47;2.30;;;19.50;61.80;;;;;;4901314;29;20470;-78
2024/04/03 02:28:48;;;;;;;2.50;2.30;;;19.60;61.70;;;;;;4916745;29;20437;-80
2024/04/03 02:31:14;;;;;;;3.00;2.57;;;19.60;61.80;;;;;;4901561;29;20453;-81
2024/04/03 02:33:44;;;;;;;2.77;2.67;;;19.50;62.00;;;;;;4917389;29;20442;-79
2024/04/03 02:36:11;;;;;;;3.40;2.30;;;19.50;61.90;;;;;;4909091;29;20486;-80
2024/04/03 02:38:38;;;;;;;2.60;2.40;;;19.50;62.00;;;;;;4917566;29;20437;-80
2024/04/03 02:41:05;;;;;;;2.40;2.30;;;19.50;61.90;;;;;;4916892;29;20450;-81
2024/04/03 02:43:32;;;;;;;4.20;2.33;;;19.50;61.80;;;;;;4901328;29;20449;-80
2024/04/03 02:45:58;;;;;;;4.40;2.67;;;19.50;61.90;;;;;;4901018;29;20466;-80
2024/04/03 02:48:25;;;;;;;2.70;2.50;;;19.60;61.80;;;;;;4917148;29;20863;-80
2024/04/03 02:51:00;;;;;;;2.70;2.50;;;19.60;61.90;;;;;;4901262;29;20442;-81
2024/04/03 02:53:28;;;;;;;2.33;2.10;;;19.60;61.90;;;;;;4916776;29;20505;-79
2024/04/03 02:55:54;;;;;;;2.13;2.00;;;19.50;61.80;;;;;;4900691;29;20461;-80
2024/04/03 02:58:21;;;;;;;2.80;2.60;;;19.60;62.10;;;;;;4901262;29;20474;-80
2024/04/03 03:00:57;;;;;;;2.63;2.43;;;19.50;61.90;;;;;;4913880;29;20461;-80
2024/04/03 03:03:26;;;;;;;2.73;2.53;;;19.50;61.80;;;;;;4892940;29;20481;-80
2024/04/03 03:05:53;;;;;;;2.73;2.53;;;19.50;61.80;;;;;;4908075;29;20477;-80
2024/04/03 03:08:22;;;;;;;2.40;2.20;;;19.50;61.90;;;;;;4910799;29;20549;-80
2024/04/03 03:10:48;;;;;;;2.50;2.30;;;19.50;61.90;;;;;;4904148;29;20462;-79
2024/04/03 03:13:15;;;;;;;2.70;2.50;;;19.50;62.20;;;;;;4910176;29;20449;-80
2024/04/03 03:15:41;;;;;;;2.57;2.40;;;19.50;61.90;;;;;;4905142;29;20470;-80
2024/04/03 03:18:08;;;;;;;2.90;2.70;;;19.50;62.10;;;;;;4915890;29;20471;-80
2024/04/03 03:20:34;;;;;;;3.53;2.13;;;19.50;62.00;;;;;;4902421;29;20457;-80
2024/04/03 03:23:01;;;;;;;2.30;2.20;;;19.50;62.00;;;;;;4904235;29;20854;-80
2024/04/03 03:25:29;;;;;;;2.03;1.90;;;19.50;62.10;;;;;;4912214;29;20473;-79
2024/04/03 03:27:56;;;;;;;2.90;2.27;;;19.50;62.10;;;;;;4903690;29;20446;-79
2024/04/03 03:30:22;;;;;;;2.47;2.27;;;19.50;62.10;;;;;;4914720;29;20450;-78
2024/04/03 03:32:49;;;;;;;2.00;1.90;;;19.50;62.00;;;;;;4904436;29;20449;-79
2024/04/03 03:35:15;;;;;;;2.10;2.00;;;19.50;62.10;;;;;;4904068;29;20235;-78
2024/04/03 03:37:42;;;;;;;2.10;2.00;;;19.50;62.30;;;;;;4919621;29;20493;-79
2024/04/03 03:40:10;;;;;;;2.30;2.17;;;19.40;62.10;;;;;;4920142;29;20457;-80
2024/04/03 03:42:38;;;;;;;2.50;2.30;;;19.50;62.20;;;;;;4903587;29;20514;-79
2024/04/03 03:45:05;;;;;;;2.10;1.90;;;19.40;62.10;;;;;;4904791;29;20477;-80
2024/04/03 03:47:32;;;;;;;2.20;2.00;;;19.40;62.10;;;;;;4933985;29;20457;-80
2024/04/03 03:52:43;;;;;;;1.83;1.73;;;19.40;62.10;;;;;;4903568;29;20464;-79
2024/04/03 03:55:11;;;;;;;2.20;1.67;;;19.40;62.30;;;;;;4902805;29;20488;-80
2024/04/03 03:57:39;;;;;;;2.00;1.87;;;19.40;62.30;;;;;;4903679;29;20454;-80
2024/04/03 04:00:08;;;;;;;2.13;2.03;;;19.50;62.40;;;;;;4902873;29;20462;-80
2024/04/03 04:02:35;;;;;;;2.63;2.00;;;19.40;62.20;;;;;;4903311;29;20496;-79
2024/04/03 04:05:02;;;;;;;2.93;2.00;;;19.40;62.30;;;;;;4918939;29;20449;-80
2024/04/03 04:07:29;;;;;;;2.13;2.00;;;19.40;62.10;;;;;;4903389;29;20444;-79
2024/04/03 04:09:57;;;;;;;2.67;2.10;;;19.40;62.30;;;;;;4903236;29;20481;-80
2024/04/03 04:12:24;;;;;;;2.17;2.03;;;19.40;62.40;;;;;;4903502;29;20453;-80
2024/04/03 04:14:52;;;;;;;1.90;1.80;;;19.40;62.10;;;;;;4919026;29;20493;-79
2024/04/03 04:17:21;;;;;;;2.40;2.20;;;19.40;62.10;;;;;;4919461;29;20450;-81
2024/04/03 04:19:48;;;;;;;3.70;1.97;;;19.40;62.40;;;;;;4903102;29;20450;-80
2024/04/03 04:22:15;;;;;;;2.37;2.23;;;19.40;62.10;;;;;;4903553;29;20481;-81
2024/04/03 04:24:44;;;;;;;2.23;2.13;;;19.40;62.40;;;;;;4903890;29;20442;-80
2024/04/03 04:27:12;;;;;;;2.60;2.17;;;19.40;62.30;;;;;;4905916;29;20461;-81
2024/04/03 04:29:40;;;;;;;1.97;1.73;;;19.40;62.30;;;;;;4929828;29;20508;-80
2024/04/03 04:32:09;;;;;;;2.17;2.00;;;19.30;62.10;;;;;;4901841;29;20442;-80
2024/04/03 04:34:37;;;;;;;2.23;1.93;;;19.30;62.40;;;;;;4902850;29;20454;-79
2024/04/03 04:37:05;;;;;;;3.33;2.20;;;19.30;62.30;;;;;;4903514;29;20489;-82
2024/04/03 04:39:30;;;;;;;4.40;2.30;;;19.30;62.40;;;;;;4903256;29;20462;-80
2024/04/03 04:41:58;;;;;;;2.50;2.00;;;19.40;62.10;;;;;;4918788;29;20477;-81
2024/04/03 04:44:24;;;;;;;2.20;2.00;;;19.30;62.40;;;;;;4910725;29;20468;-80
2024/04/03 04:46:51;;;;;;;2.30;2.03;;;19.40;62.40;;;;;;4925993;29;20477;-79
2024/04/03 04:49:19;;;;;;;2.20;2.00;;;19.30;62.20;;;;;;4913494;29;20457;-77
2024/04/03 04:51:46;;;;;;;2.50;2.17;;;19.30;62.30;;;;;;4910071;29;20466;-79
2024/04/03 04:54:13;;;;;;;2.10;1.77;;;19.30;62.30;;;;;;4911833;29;20445;-80
2024/04/03 04:56:40;;;;;;;2.17;1.97;;;19.30;62.10;;;;;;4914439;29;20473;-77
2024/04/03 04:59:08;;;;;;;2.13;2.03;;;19.30;62.10;;;;;;4906167;29;20442;-79
2024/04/03 05:01:36;;;;;;;2.30;2.00;;;19.30;62.10;;;;;;4907431;29;20477;-80
2024/04/03 05:04:02;;;;;;;2.07;1.87;;;19.20;62.40;;;;;;4924816;29;20458;-80
2024/04/03 05:06:31;;;;;;;2.63;1.87;;;19.30;62.60;;;;;;4905162;29;20528;-79
2024/04/03 05:08:57;;;;;;;2.60;2.00;;;19.20;62.30;;;;;;4922818;29;20449;-79
2024/04/03 05:11:24;;;;;;;2.03;1.70;;;19.20;62.50;;;;;;4910714;29;20493;-77
2024/04/03 05:13:50;;;;;;;2.20;2.00;;;19.20;62.50;;;;;;4911007;29;20449;-79
2024/04/03 05:16:19;;;;;;;2.43;2.00;;;19.30;62.60;;;;;;4919431;29;20470;-80
2024/04/03 05:18:44;;;;;;;3.10;2.00;;;19.30;62.70;;;;;;4916804;29;20461;-79
2024/04/03 05:21:11;;;;;;;2.93;1.73;;;19.30;62.70;;;;;;4926169;29;20489;-79
2024/04/03 05:23:39;;;;;;;1.93;1.83;;;19.30;62.60;;;;;;4914838;29;20298;-79
2024/04/03 05:26:07;;;;;;;2.00;1.83;;;19.30;62.60;;;;;;4902698;29;20477;-80
2024/04/03 05:28:35;;;;;;;2.03;1.60;;;19.30;62.50;;;;;;4910597;29;20466;-80
2024/04/03 05:31:03;;;;;;;5.13;1.67;;;19.20;62.50;;;;;;4902475;29;20442;-80
2024/04/03 05:33:29;;;;;;;2.80;1.83;;;19.30;62.40;;;;;;4911553;29;20576;-80
2024/04/03 05:35:56;;;;;;;1.70;1.60;;;19.30;62.60;;;;;;4900393;29;20488;-80
2024/04/03 05:38:22;;;;;;;1.80;1.70;;;19.30;62.70;;;;;;4892487;29;20792;-80
2024/04/03 05:40:51;;;;;;;2.50;1.53;;;19.30;62.60;;;;;;4902049;29;20442;-80
2024/04/03 05:43:17;;;;;;;2.90;2.00;;;19.30;62.30;;;;;;4901550;29;20537;-80
2024/04/03 05:45:44;;;;;;;3.13;1.90;;;19.30;62.50;;;;;;4901063;29;20493;-80
2024/04/03 05:48:10;;;;;;;2.40;1.63;;;19.30;62.40;;;;;;4901123;29;20421;-79
2024/04/03 05:50:37;;;;;;;3.57;1.90;;;19.30;62.50;;;;;;4900989;29;20452;-79
2024/04/03 05:53:04;;;;;;;3.70;1.70;;;19.30;62.30;;;;;;4900395;29;20438;-80
2024/04/03 05:55:30;;;;;;;2.40;2.00;;;19.20;62.40;;;;;;4901326;29;20457;-79
2024/04/03 05:57:59;;;;;;;2.30;2.10;;;19.20;62.30;;;;;;4917117;29;20447;-80
2024/04/03 06:00:26;;;;;;;2.47;1.70;;;19.20;62.50;;;;;;4901025;29;20444;-79
2024/04/03 06:02:53;;;;;;;3.03;2.10;;;19.20;62.50;;;;;;4916582;29;20477;-80
2024/04/03 06:05:19;;;;;;;2.70;1.80;;;19.20;62.50;;;;;;4895672;29;20477;-80
2024/04/03 06:07:46;;;;;;;2.57;2.07;;;19.20;62.50;;;;;;4899404;29;20207;-80
2024/04/03 06:10:13;;;;;;;3.07;1.87;;;19.20;62.60;;;;;;4903097;29;20434;-80
2024/04/03 06:12:40;;;;;;;1.63;1.53;;;19.20;62.60;;;;;;4900044;29;20438;-80
2024/04/03 06:15:08;;;;;;;3.03;1.77;;;19.20;62.60;;;;;;4912888;29;20449;-80
2024/04/03 06:17:34;;;;;;;1.90;1.80;;;19.20;62.40;;;;;;4895178;29;20459;-79
2024/04/03 06:20:02;;;;;;;1.67;1.50;;;19.20;62.60;;;;;;4915075;29;20505;-80
2024/04/03 06:22:28;;;;;;;2.90;2.03;;;19.20;62.60;;;;;;4899150;29;20478;-79
2024/04/03 06:24:55;;;;;;;5.07;2.70;;;19.20;62.50;;;;;;4915609;29;20453;-80
2024/04/03 06:27:21;;;;;;;1.53;1.43;;;19.20;62.50;;;;;;4898937;29;20446;-80
2024/04/03 06:29:48;;;;;;;3.53;1.90;;;19.20;62.70;;;;;;4915160;29;20794;-80
2024/04/03 06:32:15;;;;;;;3.90;2.00;;;19.20;62.70;;;;;;4890603;29;20457;-80
2024/04/03 06:34:42;;;;;;;4.13;1.97;;;19.20;62.60;;;;;;4899330;29;20443;-80
2024/04/03 06:37:08;;;;;;;2.80;2.40;;;19.20;62.60;;;;;;4900276;29;20454;-80
2024/04/03 06:39:36;;;;;;;2.00;1.90;;;19.20;62.60;;;;;;4916286;29;20442;-80
2024/04/03 06:42:02;;;;;;;3.30;2.30;;;19.20;62.50;;;;;;4899459;29;20438;-80
2024/04/03 06:44:29;;;;;;;2.30;1.73;;;19.20;62.60;;;;;;4913967;29;20441;-79
2024/04/03 06:47:00;;;;;;;2.00;1.80;;;19.30;62.70;;;;;;4899705;29;20470;-81
2024/04/03 06:49:32;;;;;;;4.07;2.73;;;19.30;62.60;;;;;;4900642;29;20497;-79
2024/04/03 06:51:58;;;;;;;2.20;2.00;;;19.30;62.60;;;;;;4900550;29;20446;-80
2024/04/03 06:54:25;;;;;;;3.83;2.17;;;19.30;62.40;;;;;;4915054;29;20468;-80
2024/04/03 06:56:51;;;;;;;2.50;1.83;;;19.30;62.40;;;;;;4900825;29;20472;-81
2024/04/03 06:59:18;;;;;;;2.07;1.83;;;19.30;62.40;;;;;;4916665;29;20469;-81
2024/04/03 07:01:44;;;;;;;2.83;2.33;;;19.30;62.40;;;;;;4916155;29;20442;-80
2024/04/03 07:04:11;;;;;;;2.90;2.30;;;19.30;62.30;;;;;;4916112;29;20482;-81
2024/04/03 07:06:39;;;;;;;2.27;2.07;;;19.30;62.40;;;;;;4900352;29;20465;-80
2024/04/03 07:09:07;;;;;;;3.20;2.10;;;19.30;62.40;;;;;;4916133;29;20511;-80
2024/04/03 07:11:33;;;;;;;3.27;2.30;;;19.30;62.30;;;;;;4916119;29;20438;-80
2024/04/03 07:14:00;;;;;;;2.20;2.00;;;19.30;62.60;;;;;;4900198;29;20458;-81
2024/04/03 07:16:26;;;;;;;3.03;2.30;;;19.30;62.60;;;;;;4914876;29;20973;-79
2024/04/03 07:18:56;;;;;;;2.43;2.23;;;19.30;62.30;;;;;;4900164;29;20514;-80
2024/04/03 07:21:23;;;;;;;2.57;2.23;;;19.30;62.10;;;;;;4915701;29;20501;-81
2024/04/03 07:23:51;;;;;;;3.70;2.20;;;19.30;62.50;;;;;;4899151;29;20474;-80
2024/04/03 07:26:19;;;;;;;4.63;2.83;;;19.30;62.10;;;;;;4914307;29;20454;-80
2024/04/03 07:28:46;;;;;;;3.20;2.20;;;19.30;62.10;;;;;;4914410;29;20446;-80
2024/04/03 07:31:12;;;;;;;2.07;1.93;;;19.30;62.10;;;;;;4890947;29;20475;-80
2024/04/03 07:33:39;;;;;;;3.80;2.50;;;19.40;62.40;;;;;;4896430;29;20442;-79
2024/04/03 07:36:06;;;;;;;2.50;2.30;;;19.30;62.20;;;;;;4898726;29;20466;-80
2024/04/03 07:38:33;;;;;;;4.57;2.33;;;19.30;62.00;;;;;;4914700;29;20446;-79
2024/04/03 07:41:00;;;;;;;2.23;2.03;;;19.40;62.20;;;;;;4912731;29;20434;-79
2024/04/03 07:43:28;;;;;;;2.93;2.43;;;19.40;62.30;;;;;;4896098;29;20466;-79
2024/04/03 07:45:57;;;;;;;4.43;2.20;;;19.40;62.30;;;;;;4912728;29;21016;-80
2024/04/03 07:48:24;;;;;;;2.80;2.10;;;19.40;62.10;;;;;;4891613;29;20447;-79
2024/04/03 07:50:58;;;;;;;2.50;2.30;;;19.40;62.10;;;;;;4899264;29;20438;-80
2024/04/03 07:53:25;;;;;;;3.57;2.27;;;19.50;62.10;;;;;;4895943;29;20449;-80
2024/04/03 07:55:51;;;;;;;3.07;2.37;;;19.50;62.40;;;;;;4914229;29;20457;-80
2024/04/03 07:58:19;;;;;;;4.23;2.40;;;19.50;62.20;;;;;;4896515;29;20509;-80
2024/04/03 08:00:46;;;;;;;4.47;2.60;;;19.50;62.00;;;;;;4899940;29;20446;-81
2024/04/03 08:03:13;;;;;;;4.00;2.77;;;19.50;62.30;;;;;;4896021;29;20529;-79
2024/04/03 08:05:39;;;;;;;3.30;2.00;;;19.50;62.20;;;;;;4899422;29;20469;-81
2024/04/03 08:08:06;;;;;;;2.77;2.50;;;19.50;62.10;;;;;;4902801;29;20442;-81
2024/04/03 08:10:33;;;;;;;2.50;2.30;;;19.50;62.10;;;;;;4903086;29;20452;-79
2024/04/03 08:13:00;;;;;;;2.07;1.87;;;19.60;62.10;;;;;;4903027;29;20450;-81
2024/04/03 08:15:28;;;;;;;4.80;2.33;;;19.50;62.10;;;;;;4903585;29;20465;-81
2024/04/03 08:17:56;;;;;;;3.37;2.60;;;19.50;62.00;;;;;;4904039;29;20428;-80
2024/04/03 08:20:22;;;;;;;2.97;2.43;;;19.50;62.00;;;;;;4903356;29;20470;-79
2024/04/03 08:22:57;;;;;;;2.17;2.07;;;19.50;61.90;;;;;;4897912;29;20481;-78
2024/04/03 08:25:26;;;;;;;3.33;3.00;;;19.50;61.80;;;;;;4902458;29;20473;-79
2024/04/03 08:27:54;;;;;;;3.77;2.93;;;19.50;62.10;;;;;;4918150;29;20494;-79
2024/04/03 08:30:20;;;;;;;7.87;3.10;;;19.60;62.00;;;;;;4902916;29;20437;-79
2024/04/03 08:43:57;;;;;;;4.60;3.40;;;19.60;62.20;;;;;;4820840;29;20498;-77
2024/04/03 08:49:42;;;;;;;5.60;3.10;;;19.70;62.10;;;;;;4788850;29;20581;-79
2024/04/03 08:52:10;;;;;;;6.03;3.47;;;19.70;62.30;;;;;;4900235;29;20433;-79
2024/04/03 08:54:39;;;;;;;4.00;3.17;;;19.70;62.10;;;;;;4915688;29;20502;-79
2024/04/03 08:57:06;;;;;;;3.20;2.90;;;19.70;62.20;;;;;;4901496;29;20467;-79
2024/04/03 08:59:38;;;;;;;5.40;3.33;;;19.70;62.20;;;;;;4901553;29;20458;-79
2024/04/03 09:02:04;;;;;;;4.30;3.20;;;19.80;62.30;;;;;;4916475;29;20449;-79
2024/04/03 09:04:33;;;;;;;3.93;3.63;;;19.80;62.10;;;;;;4917382;29;20477;-79
2024/04/03 09:06:59;;;;;;;6.43;3.40;;;19.70;62.00;;;;;;4902471;29;20470;-79
2024/04/03 09:09:58;;;;;;;5.10;4.00;;;19.80;61.80;;;;;;4915162;29;20480;-80
2024/04/03 09:12:24;;;;;;;5.70;3.80;;;19.80;62.00;;;;;;4863878;29;20990;-80
2024/04/03 09:15:10;;;;;;;5.07;4.30;;;19.70;62.00;;;;;;4889737;29;20443;-78
2024/04/03 09:17:36;;;;;;;5.63;4.53;;;19.70;62.10;;;;;;4901958;29;20446;-81
2024/04/03 09:20:04;;;;;;;4.10;3.70;;;19.70;62.20;;;;;;4917561;29;20446;-82
2024/04/03 09:22:30;;;;;;;7.23;4.10;;;19.70;62.30;;;;;;4899336;29;20450;-80
2024/04/03 09:24:59;;;;;;;4.20;3.73;;;19.70;62.20;;;;;;4916395;29;20501;-81
2024/04/03 09:28:11;;;;;;;5.53;3.90;;;19.70;62.10;;;;;;4901657;29;20457;-79
2024/04/03 09:30:29;;;;;;;5.17;4.13;;;19.80;62.30;;;;;;4896830;29;20454;-78
2024/04/03 09:32:59;;;;;;;6.47;4.70;;;19.80;62.10;;;;;;4903125;29;20438;-80
2024/04/03 09:35:27;;;;;;;8.50;4.47;;;19.70;62.10;;;;;;4901403;29;20481;-80
2024/04/03 09:37:54;;;;;;;5.13;4.60;;;19.70;62.10;;;;;;4915342;29;20434;-81
2024/04/03 09:40:52;;;;;;;5.50;4.20;;;19.70;62.10;;;;;;4902450;29;20446;-81
2024/04/03 09:43:20;;;;;;;7.43;5.00;;;19.70;62.20;;;;;;4896100;29;20473;-83
2024/04/03 09:45:47;;;;;;;8.63;4.93;;;19.70;62.20;;;;;;4897484;29;20469;-81
2024/04/03 09:48:14;;;;;;;7.10;4.50;;;19.80;62.50;;;;;;4917389;29;20505;-82
2024/04/03 09:50:42;;;;;;;9.17;5.10;;;19.80;62.30;;;;;;4901894;29;20446;-81
2024/04/03 09:53:11;;;;;;;5.90;5.03;;;19.80;62.20;;;;;;4902146;29;20446;-81
2024/04/03 09:55:38;;;;;;;6.63;5.30;;;19.80;62.00;;;;;;4902281;29;20466;-82
2024/04/03 09:58:10;;;;;;;7.33;4.90;;;19.80;62.30;;;;;;4902709;29;20450;-82
2024/04/03 10:00:39;;;;;;;5.40;4.90;;;19.80;62.20;;;;;;4901138;29;20434;-81
2024/04/03 10:03:06;;;;;;;7.80;5.57;;;19.80;62.20;;;;;;4900899;29;20481;-81
2024/04/03 10:05:36;;;;;;;5.93;5.23;;;19.80;62.00;;;;;;4901638;29;20478;-81
2024/04/03 10:08:03;;;;;;;6.70;5.87;;;19.90;62.30;;;;;;4917707;29;20453;-82
2024/04/03 10:10:30;;;;;;;5.77;5.20;;;19.90;62.30;;;;;;4902428;29;20445;-80
2024/04/03 10:12:58;;;;;;;6.67;5.17;;;19.90;62.10;;;;;;4917395;29;20446;-80
2024/04/03 10:15:27;;;;;;;5.80;5.17;;;19.90;62.20;;;;;;4901952;29;20461;-80
2024/04/03 10:18:00;;;;;;;6.10;5.50;;;19.90;62.10;;;;;;4918066;29;20461;-82
2024/04/03 10:20:35;;;;;;;9.10;5.67;;;20.00;62.40;;;;;;4902427;29;20446;-81
2024/04/03 10:23:03;;;;;;;7.00;5.53;;;20.00;62.10;;;;;;4902487;29;20449;-82
2024/04/03 10:25:31;;;;;;;7.47;5.30;;;20.10;62.10;;;;;;4902058;29;20494;-80
2024/04/03 10:27:57;;;;;;;7.30;5.30;;;20.10;61.90;;;;;;4902600;29;20450;-80
2024/04/03 10:30:24;;;;;;;6.00;5.40;;;20.10;61.70;;;;;;4902745;29;20453;-81
2024/04/03 10:32:52;;;;;;;6.63;5.27;;;20.20;62.00;;;;;;4901918;29;20469;-82
2024/04/03 10:35:21;;;;;;;7.97;5.10;;;20.20;61.90;;;;;;4900937;29;20480;-82
2024/04/03 10:37:47;;;;;;;6.90;5.47;;;20.20;61.90;;;;;;4916735;29;20450;-81
2024/04/03 10:40:14;;;;;;;5.23;4.73;;;20.20;61.90;;;;;;4900554;29;20537;-81
2024/04/03 10:43:17;;;;;;;7.57;5.30;;;20.30;61.90;;;;;;4916652;29;20446;-81
2024/04/03 10:45:48;;;;;;;5.70;5.10;;;20.30;61.60;;;;;;4896110;29;20462;-79
2024/04/03 10:48:16;;;;;;;7.43;5.57;;;20.30;61.60;;;;;;4899112;29;20420;-79
2024/04/03 10:50:45;;;;;;;6.40;5.10;;;20.30;61.70;;;;;;4896872;29;20450;-81
2024/04/03 10:53:11;;;;;;;6.13;5.53;;;20.40;61.60;;;;;;4894133;29;20446;-81
2024/04/03 10:55:38;;;;;;;6.00;5.17;;;20.40;61.70;;;;;;4901039;29;20465;-79
2024/04/03 10:58:05;;;;;;;10.13;6.00;;;20.40;61.90;;;;;;4914167;29;20446;-80
2024/04/03 11:00:33;;;;;;;7.73;6.47;;;20.50;66.20;;;;;;4890169;29;20434;-78
2024/04/03 11:03:01;;;;;;;7.30;6.60;;;20.70;67.40;;;;;;4897181;29;20450;-80
2024/04/03 11:05:28;;;;;;;7.37;6.60;;;20.60;66.60;;;;;;4891840;29;20488;-78
2024/04/03 11:07:55;;;;;;;7.97;6.97;;;20.60;67.30;;;;;;4893567;29;20462;-78
2024/04/03 11:10:22;;;;;;;8.50;6.83;;;20.70;67.20;;;;;;4900412;29;20457;-78
2024/04/03 11:12:49;;;;;;;9.63;6.83;;;20.70;66.50;;;;;;4899393;29;20475;-78
2024/04/03 11:15:22;;;;;;;6.70;6.17;;;20.90;67.30;;;;;;4901953;29;20544;-79
2024/04/03 11:17:48;;;;;;;6.77;6.17;;;20.90;65.80;;;;;;4897087;29;20575;-78
2024/04/03 11:20:15;;;;;;;7.30;6.60;;;21.00;64.80;;;;;;4899332;29;20446;-81
2024/04/03 11:22:41;;;;;;;6.30;5.70;;;20.90;64.60;;;;;;4901126;29;20213;-81
2024/04/03 11:25:12;;;;;;;6.43;5.83;;;20.80;64.40;;;;;;4916862;29;20476;-80
2024/04/03 11:27:38;;;;;;;6.30;5.73;;;20.80;64.10;;;;;;4900902;29;20454;-80
2024/04/03 11:30:06;;;;;;;5.77;5.23;;;20.60;63.00;;;;;;4900320;29;20446;-79
2024/04/03 11:32:32;;;;;;;6.00;5.10;;;20.60;64.00;;;;;;4900100;29;20521;-80
2024/04/03 11:34:59;;;;;;;5.50;5.10;;;20.50;63.20;;;;;;4916310;29;20449;-82
2024/04/03 11:37:25;;;;;;;7.20;6.33;;;20.40;63.50;;;;;;4899664;29;20441;-82
2024/04/03 11:39:52;;;;;;;6.50;5.37;;;19.80;62.20;;;;;;4917318;29;20446;-82
2024/04/03 11:42:20;;;;;;;5.53;5.03;;;19.40;65.30;;;;;;4901565;29;20452;-79
2024/04/03 11:44:46;;;;;;;6.70;5.53;;;19.10;66.30;;;;;;4903851;29;20481;-80
2024/04/03 11:47:12;;;;;;;7.57;5.47;;;19.10;67.50;;;;;;4904183;29;20458;-82
2024/04/03 11:49:40;;;;;;;9.03;6.50;;;19.00;67.90;;;;;;4919209;29;20469;-82
2024/04/03 11:52:06;;;;;;;7.03;5.70;;;19.00;67.70;;;;;;4909154;29;20440;-83
2024/04/03 11:54:33;;;;;;;7.30;4.80;;;19.10;70.20;;;;;;4930811;29;20449;-82
2024/04/03 11:57:00;;;;;;;6.50;5.73;;;19.50;69.60;;;;;;4901752;29;20465;-83
2024/04/03 11:59:29;;;;;;;6.17;5.37;;;19.90;68.10;;;;;;4914770;29;20457;-85
2024/04/03 12:01:55;;;;;;;7.97;6.80;;;20.10;67.30;;;;;;4889779;29;20450;-82
2024/04/03 12:04:23;;;;;;;9.40;7.30;;;19.70;66.10;;;;;;4901431;29;20511;-81
2024/04/03 12:07:04;;;;;;;7.40;6.53;;;19.70;66.50;;;;;;4902290;29;20465;-81
2024/04/03 12:17:23;;;;;;;7.87;6.80;;;19.00;68.10;;;;;;4893219;29;20445;-84
2024/04/03 12:20:04;;;;;;;7.80;7.00;;;18.80;70.60;;;;;;4911158;29;20442;-83
2024/04/03 12:22:52;;;;;;;7.90;6.93;;;19.10;71.00;;;;;;4924294;29;20449;-83
2024/04/03 12:25:18;;;;;;;6.73;6.13;;;19.10;71.10;;;;;;4905294;29;20481;-82
2024/04/03 12:27:50;;;;;;;6.90;6.30;;;18.90;70.30;;;;;;4925990;29;20493;-82
2024/04/03 12:30:16;;;;;;;7.40;6.70;;;18.60;70.30;;;;;;4909346;29;20456;-81
2024/04/03 12:32:50;;;;;;;8.83;7.00;;;18.70;70.70;;;;;;4915674;29;20454;-83
2024/04/03 12:35:29;;;;;;;7.37;6.70;;;18.40;71.10;;;;;;4916491;29;20457;-81
2024/04/03 12:37:58;;;;;;;9.60;6.87;;;18.30;73.30;;;;;;4915704;29;20440;-83
2024/04/03 12:41:00;;;;;;;7.90;7.10;;;18.40;73.50;;;;;;4908353;29;20446;-83
2024/04/03 12:44:06;;;;;;;6.20;5.70;;;18.40;73.90;;;;;;4914321;29;20457;-81
2024/04/03 12:50:20;;;;;;;5.13;4.53;;;19.40;72.30;;;;;;4830972;29;20468;-80
2024/04/03 12:52:51;;;;;;;8.43;5.10;;;19.80;70.70;;;;;;4885065;29;20417;-80
2024/04/03 13:06:11;;;;;;;4.37;4.07;;;20.70;67.50;;;;;;4882492;29;20504;-78
2024/04/03 13:08:48;;;;;;;4.00;3.70;;;20.80;66.60;;;;;;4875864;29;20475;-81
2024/04/03 13:14:34;;;;;;;3.77;3.40;;;20.80;65.90;;;;;;4872686;29;20449;-80
2024/04/03 13:17:15;;;;;;;3.37;3.17;;;20.80;65.60;;;;;;4900680;29;20474;-82
2024/04/03 13:20:09;;;;;;;3.23;3.13;;;20.90;65.30;;;;;;4908028;29;20453;-80
2024/04/03 13:23:35;;;;;;;3.03;2.83;;;20.90;65.20;;;;;;4914400;29;20478;-81
2024/04/03 13:26:42;;;;;;;3.83;3.53;;;20.90;65.20;;;;;;4898230;29;20432;-81
2024/04/03 13:29:34;;;;;;;3.00;2.80;;;20.90;65.00;;;;;;4908234;29;20429;-82
2024/04/03 13:32:02;;;;;;;3.67;3.37;;;20.90;65.30;;;;;;4922325;29;20446;-83
2024/04/03 13:35:05;;;;;;;3.10;2.90;;;21.00;65.30;;;;;;4909574;29;20442;-81
2024/04/03 13:37:31;;;;;;;2.87;2.77;;;21.00;65.20;;;;;;4908161;29;20446;-82
2024/04/03 13:40:09;;;;;;;3.00;2.80;;;21.10;65.90;;;;;;4903513;29;20441;-81